sensor_id;sensor_type;location;lat;lon;timestamp;pressure;altitude;pressure_sealevel;temperature;humidity
18858;BME280;9558;50.178;8.370;2023-07-31T00:01:35;98077.00;;;16.19;100.00
18858;BME280;9558;50.178;8.370;2023-07-31T00:04:22;98080.63;;;16.18;100.00
18858;BME280;9558;50.178;8.370;2023-07-31T00:07:08;98083.44;;;16.17;100.00
18858;BME280;9558;50.178;8.370;2023-07-31T00:09:55;98086.09;;;16.10;100.00
18858;BME280;9558;50.178;8.370;2023-07-31T00:12:45;98080.34;;;16.01;100.00
18858;BME280;9558;50.178;8.370;2023-07-31T00:15:33;98077.16;;;15.99;100.00
18858;BME280;9558;50.178;8.370;2023-07-31T00:18:20;98076.78;;;15.96;100.00
18858;BME280;9558;50.178;8.370;2023-07-31T00:21:06;98076.41;;;15.92;100.00
18858;BME280;9558;50.178;8.370;2023-07-31T00:23:53;98061.19;;;15.89;100.00
18858;BME280;9558;50.178;8.370;2023-07-31T00:26:40;98074.25;;;15.89;100.00
18858;BME280;9558;50.178;8.370;2023-07-31T00:29:27;98081.25;;;15.88;100.00
18858;BME280;9558;50.178;8.370;2023-07-31T00:32:15;98080.47;;;15.88;100.00
18858;BME280;9558;50.178;8.370;2023-07-31T00:35:02;98077.25;;;15.86;100.00
18858;BME280;9558;50.178;8.370;2023-07-31T00:37:49;98080.88;;;15.85;100.00
18858;BME280;9558;50.178;8.370;2023-07-31T00:40:36;98071.66;;;15.82;100.00
18858;BME280;9558;50.178;8.370;2023-07-31T00:43:24;98062.22;;;15.81;100.00
18858;BME280;9558;50.178;8.370;2023-07-31T00:46:11;98063.22;;;15.80;100.00
18858;BME280;9558;50.178;8.370;2023-07-31T00:48:59;98060.44;;;15.82;100.00
18858;BME280;9558;50.178;8.370;2023-07-31T00:51:46;98059.84;;;15.80;100.00
18858;BME280;9558;50.178;8.370;2023-07-31T00:54:33;98058.22;;;15.79;100.00
18858;BME280;9558;50.178;8.370;2023-07-31T00:57:20;98058.81;;;15.81;100.00
18858;BME280;9558;50.178;8.370;2023-07-31T01:00:08;98045.19;;;15.79;100.00
18858;BME280;9558;50.178;8.370;2023-07-31T01:02:55;98043.56;;;15.78;100.00
18858;BME280;9558;50.178;8.370;2023-07-31T01:05:49;98035.75;;;15.78;100.00
18858;BME280;9558;50.178;8.370;2023-07-31T01:08:42;98045.56;;;15.76;100.00
18858;BME280;9558;50.178;8.370;2023-07-31T01:11:34;98038.56;;;15.76;100.00
18858;BME280;9558;50.178;8.370;2023-07-31T01:14:22;98035.00;;;15.70;100.00
18858;BME280;9558;50.178;8.370;2023-07-31T01:17:08;98039.59;;;15.68;100.00
18858;BME280;9558;50.178;8.370;2023-07-31T01:19:56;98029.78;;;15.70;100.00
18858;BME280;9558;50.178;8.370;2023-07-31T01:22:59;98023.38;;;15.66;100.00
18858;BME280;9558;50.178;8.370;2023-07-31T01:25:59;98025.22;;;15.59;100.00
18858;BME280;9558;50.178;8.370;2023-07-31T01:28:55;98031.88;;;15.55;100.00
18858;BME280;9558;50.178;8.370;2023-07-31T01:31:46;98036.06;;;15.56;100.00
18858;BME280;9558;50.178;8.370;2023-07-31T01:34:35;98030.84;;;15.56;100.00
18858;BME280;9558;50.178;8.370;2023-07-31T01:37:28;98027.88;;;15.52;100.00
18858;BME280;9558;50.178;8.370;2023-07-31T01:40:15;98020.41;;;15.56;100.00
18858;BME280;9558;50.178;8.370;2023-07-31T01:43:03;98013.63;;;15.55;100.00
18858;BME280;9558;50.178;8.370;2023-07-31T01:45:49;98004.41;;;15.52;100.00
18858;BME280;9558;50.178;8.370;2023-07-31T01:48:36;98004.63;;;15.51;100.00
18858;BME280;9558;50.178;8.370;2023-07-31T01:51:23;98006.00;;;15.53;100.00
18858;BME280;9558;50.178;8.370;2023-07-31T01:54:10;98011.22;;;15.53;100.00
18858;BME280;9558;50.178;8.370;2023-07-31T01:56:56;98009.63;;;15.52;100.00
18858;BME280;9558;50.178;8.370;2023-07-31T01:59:45;98000.38;;;15.57;100.00
18858;BME280;9558;50.178;8.370;2023-07-31T02:02:31;98006.00;;;15.53;100.00
18858;BME280;9558;50.178;8.370;2023-07-31T02:05:18;98005.19;;;15.53;100.00
18858;BME280;9558;50.178;8.370;2023-07-31T02:08:05;97999.97;;;15.53;100.00
18858;BME280;9558;50.178;8.370;2023-07-31T02:10:52;98006.78;;;15.54;100.00
18858;BME280;9558;50.178;8.370;2023-07-31T02:13:38;98000.59;;;15.55;100.00
18858;BME280;9558;50.178;8.370;2023-07-31T02:16:27;98002.59;;;15.53;100.00
18858;BME280;9558;50.178;8.370;2023-07-31T02:19:13;98000.41;;;15.50;100.00
18858;BME280;9558;50.178;8.370;2023-07-31T02:22:00;98002.00;;;15.51;100.00
18858;BME280;9558;50.178;8.370;2023-07-31T02:24:47;97999.97;;;15.53;100.00
18858;BME280;9558;50.178;8.370;2023-07-31T02:27:33;97995.56;;;15.53;100.00
18858;BME280;9558;50.178;8.370;2023-07-31T02:30:20;98003.19;;;15.55;100.00
18858;BME280;9558;50.178;8.370;2023-07-31T02:33:08;97993.50;;;15.62;100.00
18858;BME280;9558;50.178;8.370;2023-07-31T02:35:55;97988.28;;;15.62;100.00
18858;BME280;9558;50.178;8.370;2023-07-31T02:38:42;97992.28;;;15.65;100.00
18858;BME280;9558;50.178;8.370;2023-07-31T02:41:29;97993.28;;;15.64;100.00
18858;BME280;9558;50.178;8.370;2023-07-31T02:44:15;98001.69;;;15.66;100.00
18858;BME280;9558;50.178;8.370;2023-07-31T02:47:03;97997.88;;;15.68;100.00
18858;BME280;9558;50.178;8.370;2023-07-31T02:49:51;97985.81;;;15.67;100.00
18858;BME280;9558;50.178;8.370;2023-07-31T02:52:38;97985.81;;;15.67;100.00
18858;BME280;9558;50.178;8.370;2023-07-31T02:55:24;97992.50;;;15.63;100.00
18858;BME280;9558;50.178;8.370;2023-07-31T02:58:11;97989.06;;;15.63;100.00
18858;BME280;9558;50.178;8.370;2023-07-31T03:00:58;97988.28;;;15.62;100.00
18858;BME280;9558;50.178;8.370;2023-07-31T03:03:45;97986.25;;;15.64;100.00
18858;BME280;9558;50.178;8.370;2023-07-31T03:06:33;97985.91;;;15.61;100.00
18858;BME280;9558;50.178;8.370;2023-07-31T03:09:19;97983.50;;;15.59;100.00
18858;BME280;9558;50.178;8.370;2023-07-31T03:12:07;97982.47;;;15.60;100.00
18858;BME280;9558;50.178;8.370;2023-07-31T03:14:54;97995.13;;;15.63;100.00
18858;BME280;9558;50.178;8.370;2023-07-31T03:17:41;97976.25;;;15.61;100.00
18858;BME280;9558;50.178;8.370;2023-07-31T03:20:28;97983.50;;;15.59;100.00
18858;BME280;9558;50.178;8.370;2023-07-31T03:23:16;97982.69;;;15.59;100.00
18858;BME280;9558;50.178;8.370;2023-07-31T03:26:06;97983.09;;;15.55;100.00
18858;BME280;9558;50.178;8.370;2023-07-31T03:28:54;97978.69;;;15.56;100.00
18858;BME280;9558;50.178;8.370;2023-07-31T03:31:40;97979.50;;;15.57;100.00
18858;BME280;9558;50.178;8.370;2023-07-31T03:34:28;97993.94;;;15.59;100.00
18858;BME280;9558;50.178;8.370;2023-07-31T03:37:17;97993.06;;;15.65;100.00
18858;BME280;9558;50.178;8.370;2023-07-31T03:40:06;98005.16;;;15.60;100.00
18858;BME280;9558;50.178;8.370;2023-07-31T03:42:54;97995.28;;;15.62;100.00
18858;BME280;9558;50.178;8.370;2023-07-31T03:45:40;97998.72;;;15.62;100.00
18858;BME280;9558;50.178;8.370;2023-07-31T03:48:27;97987.84;;;15.65;100.00
18858;BME280;9558;50.178;8.370;2023-07-31T03:51:14;97993.25;;;15.70;100.00
18858;BME280;9558;50.178;8.370;2023-07-31T03:54:02;97987.44;;;15.68;100.00
18858;BME280;9558;50.178;8.370;2023-07-31T03:56:50;97987.44;;;15.68;100.00
18858;BME280;9558;50.178;8.370;2023-07-31T03:59:37;97991.84;;;15.68;100.00
18858;BME280;9558;50.178;8.370;2023-07-31T04:02:24;97986.44;;;15.69;100.00
18858;BME280;9558;50.178;8.370;2023-07-31T04:05:11;97983.59;;;15.71;100.00
18858;BME280;9558;50.178;8.370;2023-07-31T04:07:58;97971.00;;;15.68;100.00
18858;BME280;9558;50.178;8.370;2023-07-31T04:10:45;97968.75;;;15.71;100.00
18858;BME280;9558;50.178;8.370;2023-07-31T04:13:34;97967.94;;;15.71;100.00
18858;BME280;9558;50.178;8.370;2023-07-31T04:16:20;97958.91;;;15.73;100.00
18858;BME280;9558;50.178;8.370;2023-07-31T04:19:07;97964.69;;;15.76;100.00
18858;BME280;9558;50.178;8.370;2023-07-31T04:21:56;97960.06;;;15.78;100.00
18858;BME280;9558;50.178;8.370;2023-07-31T04:24:42;97956.47;;;15.79;100.00
18858;BME280;9558;50.178;8.370;2023-07-31T04:27:29;97954.47;;;15.81;100.00
18858;BME280;9558;50.178;8.370;2023-07-31T04:30:17;97950.03;;;15.81;100.00
18858;BME280;9558;50.178;8.370;2023-07-31T04:33:04;97949.03;;;15.82;100.00
18858;BME280;9558;50.178;8.370;2023-07-31T04:35:51;97950.41;;;15.85;100.00
18858;BME280;9558;50.178;8.370;2023-07-31T04:38:39;97949.38;;;15.86;100.00
18858;BME280;9558;50.178;8.370;2023-07-31T04:41:26;97949.16;;;15.87;100.00
18858;BME280;9558;50.178;8.370;2023-07-31T04:44:14;97946.38;;;15.89;100.00
18858;BME280;9558;50.178;8.370;2023-07-31T04:47:02;97943.31;;;15.92;100.00
18858;BME280;9558;50.178;8.370;2023-07-31T04:49:49;97945.94;;;15.92;100.00
18858;BME280;9558;50.178;8.370;2023-07-31T04:52:36;97950.72;;;15.95;100.00
18858;BME280;9558;50.178;8.370;2023-07-31T04:55:22;97953.53;;;15.94;100.00
18858;BME280;9558;50.178;8.370;2023-07-31T04:58:09;97955.94;;;15.95;100.00
18858;BME280;9558;50.178;8.370;2023-07-31T05:00:56;97953.91;;;15.97;100.00
18858;BME280;9558;50.178;8.370;2023-07-31T05:03:44;97953.06;;;16.03;100.00
18858;BME280;9558;50.178;8.370;2023-07-31T05:06:32;97953.06;;;16.03;100.00
18858;BME280;9558;50.178;8.370;2023-07-31T05:09:19;97960.88;;;16.03;100.00
18858;BME280;9558;50.178;8.370;2023-07-31T05:12:06;97949.00;;;16.08;100.00
18858;BME280;9558;50.178;8.370;2023-07-31T05:14:53;97950.13;;;16.12;100.00
18858;BME280;9558;50.178;8.370;2023-07-31T05:17:40;97959.44;;;16.08;100.00
18858;BME280;9558;50.178;8.370;2023-07-31T05:20:28;97951.41;;;16.09;100.00
18858;BME280;9558;50.178;8.370;2023-07-31T05:23:15;97958.56;;;16.14;100.00
18858;BME280;9558;50.178;8.370;2023-07-31T05:26:04;97956.31;;;16.17;100.00
18858;BME280;9558;50.178;8.370;2023-07-31T05:28:51;97961.75;;;16.16;100.00
18858;BME280;9558;50.178;8.370;2023-07-31T05:31:38;97952.91;;;16.17;100.00
18858;BME280;9558;50.178;8.370;2023-07-31T05:34:25;97949.44;;;16.23;100.00
18858;BME280;9558;50.178;8.370;2023-07-31T05:37:13;97952.03;;;16.23;100.00
18858;BME280;9558;50.178;8.370;2023-07-31T05:40:00;97946.31;;;16.33;100.00
18858;BME280;9558;50.178;8.370;2023-07-31T05:42:47;97944.72;;;16.32;100.00
18858;BME280;9558;50.178;8.370;2023-07-31T05:45:33;97944.09;;;16.36;100.00
18858;BME280;9558;50.178;8.370;2023-07-31T05:48:20;97954.09;;;16.39;100.00
18858;BME280;9558;50.178;8.370;2023-07-31T05:51:07;97949.44;;;16.41;100.00
18858;BME280;9558;50.178;8.370;2023-07-31T05:53:55;97937.97;;;16.42;100.00
18858;BME280;9558;50.178;8.370;2023-07-31T05:56:42;97930.72;;;16.45;100.00
18858;BME280;9558;50.178;8.370;2023-07-31T05:59:29;97929.25;;;16.49;100.00
18858;BME280;9558;50.178;8.370;2023-07-31T06:02:18;97927.25;;;16.51;100.00
18858;BME280;9558;50.178;8.370;2023-07-31T06:05:05;97918.41;;;16.52;100.00
18858;BME280;9558;50.178;8.370;2023-07-31T06:07:52;97926.41;;;16.50;100.00
18858;BME280;9558;50.178;8.370;2023-07-31T06:10:40;97927.47;;;16.49;100.00
18858;BME280;9558;50.178;8.370;2023-07-31T06:13:27;97928.41;;;16.55;100.00
18858;BME280;9558;50.178;8.370;2023-07-31T06:16:14;97930.13;;;16.61;100.00
18858;BME280;9558;50.178;8.370;2023-07-31T06:19:01;97929.22;;;16.67;100.00
18858;BME280;9558;50.178;8.370;2023-07-31T06:21:48;97920.53;;;16.73;100.00
18858;BME280;9558;50.178;8.370;2023-07-31T06:24:35;97916.81;;;16.81;100.00
18858;BME280;9558;50.178;8.370;2023-07-31T06:27:23;97930.38;;;16.90;100.00
18858;BME280;9558;50.178;8.370;2023-07-31T06:30:10;97923.47;;;16.96;100.00
18858;BME280;9558;50.178;8.370;2023-07-31T06:32:57;97933.47;;;16.99;100.00
18858;BME280;9558;50.178;8.370;2023-07-31T06:35:44;97935.88;;;17.00;100.00
18858;BME280;9558;50.178;8.370;2023-07-31T06:38:31;97928.16;;;17.05;100.00
18858;BME280;9558;50.178;8.370;2023-07-31T06:41:18;97920.47;;;17.10;100.00
18858;BME280;9558;50.178;8.370;2023-07-31T06:44:06;97925.94;;;17.21;100.00
18858;BME280;9558;50.178;8.370;2023-07-31T06:46:53;97938.94;;;17.39;100.00
18858;BME280;9558;50.178;8.370;2023-07-31T06:49:40;97929.97;;;17.59;100.00
18858;BME280;9558;50.178;8.370;2023-07-31T06:52:27;97930.91;;;17.76;100.00
18858;BME280;9558;50.178;8.370;2023-07-31T06:55:18;97933.53;;;18.00;100.00
18858;BME280;9558;50.178;8.370;2023-07-31T06:58:05;97935.03;;;18.08;100.00
18858;BME280;9558;50.178;8.370;2023-07-31T07:00:53;97926.69;;;18.23;100.00
18858;BME280;9558;50.178;8.370;2023-07-31T07:03:40;97930.47;;;18.56;100.00
18858;BME280;9558;50.178;8.370;2023-07-31T07:06:27;97930.66;;;18.66;99.98
18858;BME280;9558;50.178;8.370;2023-07-31T07:09:14;97914.44;;;18.81;98.77
18858;BME280;9558;50.178;8.370;2023-07-31T07:12:00;97926.13;;;19.02;93.72
18858;BME280;9558;50.178;8.370;2023-07-31T07:14:47;97916.94;;;19.33;92.39
18858;BME280;9558;50.178;8.370;2023-07-31T07:17:36;97903.63;;;19.57;91.17
18858;BME280;9558;50.178;8.370;2023-07-31T07:20:23;97902.50;;;19.70;86.45
18858;BME280;9558;50.178;8.370;2023-07-31T07:23:09;97899.16;;;19.92;87.59
18858;BME280;9558;50.178;8.370;2023-07-31T07:25:56;97903.94;;;19.95;87.06
18858;BME280;9558;50.178;8.370;2023-07-31T07:28:43;97903.94;;;19.95;86.42
18858;BME280;9558;50.178;8.370;2023-07-31T07:31:30;97895.91;;;19.84;84.73
18858;BME280;9558;50.178;8.370;2023-07-31T07:34:18;97908.88;;;19.74;85.03
18858;BME280;9558;50.178;8.370;2023-07-31T07:37:05;97898.72;;;19.61;85.01
18858;BME280;9558;50.178;8.370;2023-07-31T07:39:52;97896.97;;;19.49;86.49
18858;BME280;9558;50.178;8.370;2023-07-31T07:42:39;97901.19;;;19.33;85.98
18858;BME280;9558;50.178;8.370;2023-07-31T07:45:26;97897.84;;;19.21;86.16
18858;BME280;9558;50.178;8.370;2023-07-31T07:48:13;97904.28;;;19.13;87.27
18858;BME280;9558;50.178;8.370;2023-07-31T07:51:01;97903.84;;;19.05;87.28
18858;BME280;9558;50.178;8.370;2023-07-31T07:53:48;97900.75;;;18.91;87.69
18858;BME280;9558;50.178;8.370;2023-07-31T07:56:35;97899.72;;;18.80;87.18
18858;BME280;9558;50.178;8.370;2023-07-31T07:59:22;97900.69;;;18.74;88.35
18858;BME280;9558;50.178;8.370;2023-07-31T08:02:09;97898.78;;;18.69;89.53
18858;BME280;9558;50.178;8.370;2023-07-31T08:04:56;97886.75;;;18.73;90.01
18858;BME280;9558;50.178;8.370;2023-07-31T08:07:44;97892.34;;;18.77;89.85
18858;BME280;9558;50.178;8.370;2023-07-31T08:10:31;97893.69;;;18.79;89.85
18858;BME280;9558;50.178;8.370;2023-07-31T08:13:18;97891.53;;;18.88;89.87
18858;BME280;9558;50.178;8.370;2023-07-31T08:16:05;97885.91;;;18.96;89.46
18858;BME280;9558;50.178;8.370;2023-07-31T08:18:52;97885.34;;;19.11;89.29
18858;BME280;9558;50.178;8.370;2023-07-31T08:21:39;97873.75;;;19.24;88.40
18858;BME280;9558;50.178;8.370;2023-07-31T08:24:27;97872.47;;;19.27;88.30
18858;BME280;9558;50.178;8.370;2023-07-31T08:27:14;97877.25;;;19.30;86.60
18858;BME280;9558;50.178;8.370;2023-07-31T08:30:01;97866.28;;;19.33;86.77
18858;BME280;9558;50.178;8.370;2023-07-31T08:32:48;97874.22;;;19.38;86.94
18858;BME280;9558;50.178;8.370;2023-07-31T08:35:36;97870.00;;;19.37;86.86
18858;BME280;9558;50.178;8.370;2023-07-31T08:38:23;97874.22;;;19.38;86.79
18858;BME280;9558;50.178;8.370;2023-07-31T08:41:12;97869.78;;;19.39;85.62
18858;BME280;9558;50.178;8.370;2023-07-31T08:43:59;97875.81;;;19.39;85.84
18858;BME280;9558;50.178;8.370;2023-07-31T08:46:47;97879.53;;;19.43;86.42
18858;BME280;9558;50.178;8.370;2023-07-31T08:49:36;97884.00;;;19.43;86.46
18858;BME280;9558;50.178;8.370;2023-07-31T08:52:25;97873.41;;;19.55;87.02
18858;BME280;9558;50.178;8.370;2023-07-31T08:55:13;97871.97;;;19.64;86.44
18858;BME280;9558;50.178;8.370;2023-07-31T08:58:02;97872.13;;;19.57;84.50
18858;BME280;9558;50.178;8.370;2023-07-31T09:00:50;97861.47;;;19.64;84.44
18858;BME280;9558;50.178;8.370;2023-07-31T09:03:38;97855.25;;;19.70;86.49
18858;BME280;9558;50.178;8.370;2023-07-31T09:06:27;97866.88;;;19.74;87.72
18858;BME280;9558;50.178;8.370;2023-07-31T09:09:15;97864.56;;;19.78;86.76
18858;BME280;9558;50.178;8.370;2023-07-31T09:12:03;97857.78;;;19.82;86.81
18858;BME280;9558;50.178;8.370;2023-07-31T09:14:52;97847.06;;;19.83;86.17
18858;BME280;9558;50.178;8.370;2023-07-31T09:17:38;97847.28;;;19.82;86.74
18858;BME280;9558;50.178;8.370;2023-07-31T09:20:25;97847.06;;;19.83;87.00
18858;BME280;9558;50.178;8.370;2023-07-31T09:23:14;97843.34;;;19.79;87.01
18858;BME280;9558;50.178;8.370;2023-07-31T09:26:02;97855.88;;;19.77;87.44
18858;BME280;9558;50.178;8.370;2023-07-31T09:28:48;97854.47;;;19.69;87.78
18858;BME280;9558;50.178;8.370;2023-07-31T09:31:41;97853.84;;;19.62;89.36
18858;BME280;9558;50.178;8.370;2023-07-31T09:34:29;97855.53;;;19.51;90.39
18858;BME280;9558;50.178;8.370;2023-07-31T09:37:16;97854.41;;;19.47;90.14
18858;BME280;9558;50.178;8.370;2023-07-31T09:40:05;97848.53;;;19.40;90.69
18858;BME280;9558;50.178;8.370;2023-07-31T09:42:53;97837.34;;;19.45;91.11
18858;BME280;9558;50.178;8.370;2023-07-31T09:45:40;97839.72;;;19.46;90.14
18858;BME280;9558;50.178;8.370;2023-07-31T09:48:29;97825.63;;;19.52;91.60
18858;BME280;9558;50.178;8.370;2023-07-31T09:51:16;97809.50;;;19.66;91.15
18858;BME280;9558;50.178;8.370;2023-07-31T09:54:03;97808.97;;;19.81;90.63
18858;BME280;9558;50.178;8.370;2023-07-31T09:56:49;97815.25;;;20.02;90.65
18858;BME280;9558;50.178;8.370;2023-07-31T09:59:36;97802.78;;;20.14;89.71
18858;BME280;9558;50.178;8.370;2023-07-31T10:02:23;97796.16;;;20.34;88.09
18858;BME280;9558;50.178;8.370;2023-07-31T10:05:14;97797.53;;;20.42;86.45
18858;BME280;9558;50.178;8.370;2023-07-31T10:08:01;97801.00;;;20.47;85.25
18858;BME280;9558;50.178;8.370;2023-07-31T10:10:49;97801.34;;;20.56;85.84
18858;BME280;9558;50.178;8.370;2023-07-31T10:13:36;97799.31;;;20.63;86.63
18858;BME280;9558;50.178;8.370;2023-07-31T10:16:24;97800.63;;;20.61;84.44
18858;BME280;9558;50.178;8.370;2023-07-31T10:19:11;97791.97;;;20.65;83.18
18858;BME280;9558;50.178;8.370;2023-07-31T10:21:59;97784.34;;;20.64;81.89
18858;BME280;9558;50.178;8.370;2023-07-31T10:24:48;97776.69;;;20.62;79.48
18858;BME280;9558;50.178;8.370;2023-07-31T10:27:35;97771.56;;;20.73;82.93
18858;BME280;9558;50.178;8.370;2023-07-31T10:30:26;97781.63;;;20.81;81.31
18858;BME280;9558;50.178;8.370;2023-07-31T10:33:13;97770.84;;;20.82;80.64
18858;BME280;9558;50.178;8.370;2023-07-31T10:36:13;97770.88;;;20.87;79.00
18858;BME280;9558;50.178;8.370;2023-07-31T10:39:04;97772.72;;;20.87;79.25
18858;BME280;9558;50.178;8.370;2023-07-31T10:42:12;97775.09;;;20.88;78.81
18858;BME280;9558;50.178;8.370;2023-07-31T10:45:02;97775.34;;;20.87;81.74
18858;BME280;9558;50.178;8.370;2023-07-31T10:47:49;97777.78;;;20.99;80.09
18858;BME280;9558;50.178;8.370;2023-07-31T10:50:37;97772.81;;;21.02;78.62
18858;BME280;9558;50.178;8.370;2023-07-31T10:53:26;97777.94;;;21.19;78.58
18858;BME280;9558;50.178;8.370;2023-07-31T10:56:14;97769.53;;;21.22;74.53
18858;BME280;9558;50.178;8.370;2023-07-31T10:59:04;97769.81;;;21.26;75.51
18858;BME280;9558;50.178;8.370;2023-07-31T11:01:52;97772.72;;;21.30;75.75
18858;BME280;9558;50.178;8.370;2023-07-31T11:04:41;97778.03;;;21.35;76.05
18858;BME280;9558;50.178;8.370;2023-07-31T11:07:46;97759.09;;;21.43;73.84
18858;BME280;9558;50.178;8.370;2023-07-31T11:10:33;97767.81;;;21.49;75.93
18858;BME280;9558;50.178;8.370;2023-07-31T11:13:21;97764.44;;;21.53;74.70
18858;BME280;9558;50.178;8.370;2023-07-31T11:16:08;97753.94;;;21.58;75.19
18858;BME280;9558;50.178;8.370;2023-07-31T11:18:55;97742.34;;;21.54;72.57
18858;BME280;9558;50.178;8.370;2023-07-31T11:21:42;97743.41;;;21.58;73.60
18858;BME280;9558;50.178;8.370;2023-07-31T11:24:29;97747.63;;;21.65;73.54
18858;BME280;9558;50.178;8.370;2023-07-31T11:27:16;97754.53;;;21.71;73.23
18858;BME280;9558;50.178;8.370;2023-07-31T11:30:05;97748.47;;;21.70;71.23
18858;BME280;9558;50.178;8.370;2023-07-31T11:32:52;97747.69;;;21.70;72.71
18858;BME280;9558;50.178;8.370;2023-07-31T11:35:43;97740.84;;;21.74;70.79
18858;BME280;9558;50.178;8.370;2023-07-31T11:38:31;97740.09;;;21.84;72.73
18858;BME280;9558;50.178;8.370;2023-07-31T11:41:19;97731.41;;;21.99;74.73
18858;BME280;9558;50.178;8.370;2023-07-31T11:44:05;97749.38;;;22.07;74.22
18858;BME280;9558;50.178;8.370;2023-07-31T11:46:56;97737.25;;;22.01;70.94
18858;BME280;9558;50.178;8.370;2023-07-31T11:49:43;97745.66;;;22.03;72.41
18858;BME280;9558;50.178;8.370;2023-07-31T11:52:33;97729.84;;;21.92;71.20
18858;BME280;9558;50.178;8.370;2023-07-31T11:55:23;97740.91;;;21.89;70.30
18858;BME280;9558;50.178;8.370;2023-07-31T11:58:11;97745.63;;;21.87;69.89
18858;BME280;9558;50.178;8.370;2023-07-31T12:00:58;97732.44;;;21.87;69.99
18858;BME280;9558;50.178;8.370;2023-07-31T12:03:47;97742.19;;;21.87;70.66
18858;BME280;9558;50.178;8.370;2023-07-31T12:06:34;97725.84;;;21.80;71.04
18858;BME280;9558;50.178;8.370;2023-07-31T12:09:21;97720.59;;;21.80;71.67
18858;BME280;9558;50.178;8.370;2023-07-31T12:12:09;97737.69;;;21.77;69.75
18858;BME280;9558;50.178;8.370;2023-07-31T12:14:55;97717.41;;;21.78;71.46
18858;BME280;9558;50.178;8.370;2023-07-31T12:17:42;97714.28;;;21.86;71.62
18858;BME280;9558;50.178;8.370;2023-07-31T12:20:35;97706.91;;;21.93;72.97
18858;BME280;9558;50.178;8.370;2023-07-31T12:23:22;97706.41;;;22.01;72.00
18858;BME280;9558;50.178;8.370;2023-07-31T12:26:15;97719.81;;;21.95;68.43
18858;BME280;9558;50.178;8.370;2023-07-31T12:29:01;97716.66;;;21.98;70.96
18858;BME280;9558;50.178;8.370;2023-07-31T12:31:48;97716.16;;;22.01;71.06
18858;BME280;9558;50.178;8.370;2023-07-31T12:34:42;97699.31;;;22.07;71.20
18858;BME280;9558;50.178;8.370;2023-07-31T12:37:30;97686.69;;;22.19;71.29
18858;BME280;9558;50.178;8.370;2023-07-31T12:40:17;97688.53;;;22.34;70.88
18858;BME280;9558;50.178;8.370;2023-07-31T12:43:04;97674.31;;;22.46;71.16
18858;BME280;9558;50.178;8.370;2023-07-31T12:45:51;97679.31;;;22.63;69.88
18858;BME280;9558;50.178;8.370;2023-07-31T12:48:39;97672.44;;;22.77;69.58
18858;BME280;9558;50.178;8.370;2023-07-31T12:51:26;97662.63;;;22.93;69.95
18858;BME280;9558;50.178;8.370;2023-07-31T12:54:14;97647.56;;;22.99;68.28
18858;BME280;9558;50.178;8.370;2023-07-31T12:57:00;97655.47;;;23.04;68.67
18858;BME280;9558;50.178;8.370;2023-07-31T12:59:47;97673.41;;;23.17;65.33
18858;BME280;9558;50.178;8.370;2023-07-31T13:02:34;97646.47;;;23.05;63.92
18858;BME280;9558;50.178;8.370;2023-07-31T13:05:21;97648.28;;;23.25;66.25
18858;BME280;9558;50.178;8.370;2023-07-31T13:08:08;97656.19;;;23.30;64.23
18858;BME280;9558;50.178;8.370;2023-07-31T13:10:56;97662.47;;;23.44;65.41
18858;BME280;9558;50.178;8.370;2023-07-31T13:13:43;97652.66;;;23.50;65.15
18858;BME280;9558;50.178;8.370;2023-07-31T13:16:30;97651.63;;;23.46;63.95
18858;BME280;9558;50.178;8.370;2023-07-31T13:19:17;97647.31;;;23.60;64.97
18858;BME280;9558;50.178;8.370;2023-07-31T13:22:03;97664.78;;;23.56;62.97
18858;BME280;9558;50.178;8.370;2023-07-31T13:24:50;97655.72;;;23.73;65.27
18858;BME280;9558;50.178;8.370;2023-07-31T13:27:38;97656.47;;;23.84;65.56
18858;BME280;9558;50.178;8.370;2023-07-31T13:30:25;97659.34;;;23.87;65.48
18858;BME280;9558;50.178;8.370;2023-07-31T13:33:13;97651.41;;;23.82;65.05
18858;BME280;9558;50.178;8.370;2023-07-31T13:35:59;97659.47;;;23.67;63.30
18858;BME280;9558;50.178;8.370;2023-07-31T13:38:46;97665.09;;;23.50;65.04
18858;BME280;9558;50.178;8.370;2023-07-31T13:41:33;97665.94;;;23.40;64.89
18858;BME280;9558;50.178;8.370;2023-07-31T13:44:21;97648.00;;;23.32;65.71
18858;BME280;9558;50.178;8.370;2023-07-31T13:47:09;97657.53;;;23.27;65.65
18858;BME280;9558;50.178;8.370;2023-07-31T13:49:56;97661.75;;;23.23;66.27
18858;BME280;9558;50.178;8.370;2023-07-31T13:52:42;97648.06;;;23.06;65.58
18858;BME280;9558;50.178;8.370;2023-07-31T13:55:29;97659.22;;;22.87;66.87
18858;BME280;9558;50.178;8.370;2023-07-31T13:58:17;97671.91;;;22.65;67.59
18858;BME280;9558;50.178;8.370;2023-07-31T14:01:05;97669.84;;;22.41;68.37
18858;BME280;9558;50.178;8.370;2023-07-31T14:03:52;97672.16;;;22.27;67.80
18858;BME280;9558;50.178;8.370;2023-07-31T14:06:38;97665.56;;;22.09;69.21
18858;BME280;9558;50.178;8.370;2023-07-31T14:09:25;97668.19;;;21.88;70.18
18858;BME280;9558;50.178;8.370;2023-07-31T14:12:13;97639.19;;;21.78;70.86
18858;BME280;9558;50.178;8.370;2023-07-31T14:15:00;97624.16;;;21.79;70.92
18858;BME280;9558;50.178;8.370;2023-07-31T14:17:49;97626.53;;;21.80;71.19
18858;BME280;9558;50.178;8.370;2023-07-31T14:20:36;97604.94;;;21.73;71.46
18858;BME280;9558;50.178;8.370;2023-07-31T14:23:23;97615.47;;;21.73;71.92
18858;BME280;9558;50.178;8.370;2023-07-31T14:26:10;97623.41;;;21.78;72.22
18858;BME280;9558;50.178;8.370;2023-07-31T14:28:56;97596.00;;;21.79;73.10
18858;BME280;9558;50.178;8.370;2023-07-31T14:31:43;97597.59;;;21.85;72.12
18858;BME280;9558;50.178;8.370;2023-07-31T14:34:31;97603.09;;;21.89;71.94
18858;BME280;9558;50.178;8.370;2023-07-31T14:37:18;97604.94;;;21.83;73.55
18858;BME280;9558;50.178;8.370;2023-07-31T14:40:06;97617.06;;;21.84;72.50
18858;BME280;9558;50.178;8.370;2023-07-31T14:42:53;97626.81;;;21.73;73.17
18858;BME280;9558;50.178;8.370;2023-07-31T14:45:39;97617.84;;;21.74;74.68
18858;BME280;9558;50.178;8.370;2023-07-31T14:48:26;97609.16;;;21.69;73.60
18858;BME280;9558;50.178;8.370;2023-07-31T14:51:16;97612.06;;;21.62;73.43
18858;BME280;9558;50.178;8.370;2023-07-31T14:54:03;97618.34;;;21.61;72.07